createdAt,value
2023-01-03T00:02:06.308Z,96065.41
2023-01-03T00:04:33.060Z,96055.41
2023-01-03T00:06:59.708Z,96056.16
2023-01-03T00:09:26.645Z,96053.06
2023-01-03T00:12:12.973Z,96060.00
2023-01-03T00:14:42.519Z,96055.41
2023-01-03T00:17:10.277Z,96060.38
2023-01-03T00:19:40.570Z,96043.47
2023-01-03T00:22:07.613Z,96040.00
2023-01-03T00:24:34.233Z,96053.06
2023-01-03T00:27:00.927Z,96050.00
2023-01-03T00:29:27.735Z,96060.00
2023-01-03T00:31:54.627Z,96055.41
2023-01-03T00:34:21.408Z,96049.22
2023-01-03T00:36:48.333Z,96056.16
2023-01-03T00:39:15.129Z,96060.78
2023-01-03T00:41:42.488Z,96053.09
2023-01-03T00:44:09.177Z,96050.75
2023-01-03T00:46:35.987Z,96048.44
2023-01-03T00:49:03.880Z,96054.22
2023-01-03T00:51:33.073Z,96054.59
2023-01-03T00:54:01.510Z,96044.97
2023-01-03T00:56:33.236Z,96059.19
2023-01-03T00:59:00.382Z,96050.75
2023-01-03T01:01:33.869Z,96053.41
2023-01-03T01:04:11.889Z,96051.50
2023-01-03T01:06:50.689Z,96043.78
2023-01-03T01:09:23.645Z,96049.94
2023-01-03T01:11:51.196Z,96042.25
2023-01-03T01:14:21.047Z,96044.94
2023-01-03T01:16:53.317Z,96046.81
2023-01-03T01:19:21.622Z,96043.66
2023-01-03T01:21:48.943Z,96020.16
2023-01-03T01:24:17.926Z,96032.03
2023-01-03T01:26:46.327Z,96039.75
2023-01-03T01:29:14.208Z,96050.09
2023-01-03T01:31:41.968Z,96041.25
2023-01-03T01:34:09.186Z,96020.84
2023-01-03T01:36:37.772Z,96038.16
2023-01-03T01:39:08.323Z,96049.28
2023-01-03T01:41:56.201Z,96043.06
2023-01-03T01:44:47.313Z,96037.28
2023-01-03T01:47:32.695Z,96033.06
2023-01-03T01:50:29.680Z,96028.03
2023-01-03T01:53:01.276Z,96024.53
2023-01-03T01:55:37.255Z,96029.91
2023-01-03T01:58:06.298Z,96026.81
2023-01-03T02:00:33.482Z,96020.63
2023-01-03T02:03:00.711Z,96026.75
2023-01-03T02:05:28.542Z,96026.00
2023-01-03T02:07:55.834Z,96022.16
2023-01-03T02:10:58.101Z,96019.84
2023-01-03T02:13:38.524Z,96020.03
2023-01-03T02:16:14.238Z,96012.75
2023-01-03T02:18:51.474Z,96024.94
2023-01-03T02:21:37.801Z,96027.25
2023-01-03T02:24:23.236Z,96026.41
2023-01-03T02:26:59.106Z,96019.50
2023-01-03T02:29:46.024Z,96027.78
2023-01-03T02:32:36.714Z,96025.09
2023-01-03T02:35:28.259Z,96029.72
2023-01-03T02:38:21.853Z,96028.94
2023-01-03T02:41:25.473Z,96003.25
2023-01-03T02:44:11.325Z,96009.78
2023-01-03T02:46:42.605Z,96020.84
2023-01-03T02:49:15.882Z,96021.97
2023-01-03T02:51:57.688Z,96012.38
2023-01-03T02:54:47.067Z,96010.78
2023-01-03T02:57:22.321Z,96016.13
2023-01-03T02:59:57.743Z,96021.13
2023-01-03T03:02:32.434Z,96004.22
2023-01-03T03:05:02.723Z,96016.56
2023-01-03T03:07:36.833Z,96025.84
2023-01-03T03:10:23.275Z,96001.28
2023-01-03T03:13:13.223Z,96024.34
2023-01-03T03:15:52.172Z,96029.22
2023-01-03T03:18:40.298Z,96022.94
2023-01-03T03:21:28.940Z,96004.81
2023-01-03T03:24:20.223Z,96007.13
2023-01-03T03:26:49.976Z,95997.06
2023-01-03T03:29:18.844Z,95993.72
2023-01-03T03:31:50.800Z,96014.09
2023-01-03T03:34:32.626Z,96013.72
2023-01-03T03:37:20.934Z,96020.47
2023-01-03T03:40:07.003Z,96023.88
2023-01-03T03:43:00.976Z,96020.03
2023-01-03T03:45:39.705Z,96029.38
2023-01-03T03:48:14.006Z,96032.56
2023-01-03T03:50:46.860Z,96005.91
2023-01-03T03:53:16.205Z,96010.63
2023-01-03T03:55:56.779Z,96024.16
2023-01-03T03:58:39.016Z,96023.75
2023-01-03T04:01:07.613Z,96026.56
2023-01-03T04:03:37.165Z,96018.50
2023-01-03T04:06:10.809Z,96009.44
2023-01-03T04:08:37.511Z,96017.84
2023-01-03T04:11:07.742Z,96022.06
2023-01-03T04:13:36.415Z,96017.50
2023-01-03T04:16:04.332Z,96017.56
2023-01-03T04:18:31.548Z,96012.53
2023-01-03T04:20:58.345Z,96012.03
2023-01-03T04:23:25.354Z,96036.88
2023-01-03T04:25:52.175Z,96031.78
2023-01-03T04:28:19.395Z,96012.91
2023-01-03T04:30:47.094Z,96027.28
2023-01-03T04:33:14.285Z,96023.66
2023-01-03T04:35:41.153Z,96014.97
2023-01-03T04:38:09.432Z,96043.88
2023-01-03T04:40:38.678Z,96026.72
2023-01-03T04:43:24.053Z,96037.53
2023-01-03T04:45:51.511Z,96042.91
2023-01-03T04:48:18.171Z,96045.63
2023-01-03T04:50:56.110Z,96054.09
2023-01-03T04:53:24.684Z,96049.63
2023-01-03T04:55:52.802Z,96051.59
2023-01-03T04:58:20.495Z,96049.47
2023-01-03T05:00:47.460Z,96053.47
2023-01-03T05:03:14.641Z,96047.25
2023-01-03T05:05:41.870Z,96051.94
2023-01-03T05:08:10.865Z,96049.44
2023-01-03T05:10:41.392Z,96059.25
2023-01-03T05:13:08.851Z,96067.63
2023-01-03T05:15:38.657Z,96059.72
2023-01-03T05:18:05.786Z,96048.88
2023-01-03T05:20:51.073Z,96042.34
2023-01-03T05:23:37.260Z,96073.75
2023-01-03T05:26:19.406Z,96056.03
2023-01-03T05:28:49.953Z,96061.75
2023-01-03T05:31:16.647Z,96059.78
2023-01-03T05:33:43.417Z,96062.22
2023-01-03T05:36:10.530Z,96061.06
2023-01-03T05:38:38.206Z,96061.25
2023-01-03T05:41:05.564Z,96068.53
2023-01-03T05:43:32.230Z,96062.16
2023-01-03T05:45:58.889Z,96062.75
2023-01-03T05:48:25.625Z,96060.84
2023-01-03T05:50:52.344Z,96060.94
2023-01-03T05:53:18.999Z,96058.56
2023-01-03T05:55:45.580Z,96045.88
2023-01-03T05:58:13.266Z,96062.47
2023-01-03T06:00:40.196Z,96060.34
2023-01-03T06:03:07.776Z,96054.91
2023-01-03T06:05:34.575Z,96073.31
2023-01-03T06:08:02.398Z,96051.38
2023-01-03T06:10:29.139Z,96084.00
2023-01-03T06:12:56.161Z,96070.25
2023-01-03T06:15:22.855Z,96075.44
2023-01-03T06:17:57.596Z,96084.06
2023-01-03T06:20:26.240Z,96090.63
2023-01-03T06:22:53.624Z,96089.56
2023-01-03T06:25:20.546Z,96088.25
2023-01-03T06:27:47.256Z,96082.78
2023-01-03T06:30:15.794Z,96086.72
2023-01-03T06:32:43.333Z,96095.28
2023-01-03T06:35:10.291Z,96087.38
2023-01-03T06:37:36.923Z,96084.22
2023-01-03T06:40:04.010Z,96095.69
2023-01-03T06:42:45.338Z,96104.84
2023-01-03T06:45:32.621Z,96107.69
2023-01-03T06:48:22.941Z,96105.47
2023-01-03T06:51:08.104Z,96110.47
2023-01-03T06:53:39.689Z,96108.53
2023-01-03T06:56:07.181Z,96124.53
2023-01-03T06:58:34.098Z,96116.59
2023-01-03T07:01:03.873Z,96116.25
2023-01-03T07:03:31.903Z,96122.13
2023-01-03T07:05:58.801Z,96096.75
2023-01-03T07:08:25.394Z,96111.91
2023-01-03T07:10:52.152Z,96119.03
2023-01-03T07:13:37.341Z,96125.66
2023-01-03T07:16:04.065Z,96124.72
2023-01-03T07:18:31.606Z,96129.75
2023-01-03T07:20:58.285Z,96119.13
2023-01-03T07:23:25.004Z,96119.53
2023-01-03T07:25:55.411Z,96038.56
2023-01-03T07:28:22.198Z,96118.59
2023-01-03T07:30:49.080Z,96110.47
2023-01-03T07:33:17.083Z,96123.09
2023-01-03T07:35:43.783Z,96135.41
2023-01-03T07:38:12.167Z,96111.34
2023-01-03T07:40:39.695Z,96132.88
2023-01-03T07:43:24.908Z,96135.34
2023-01-03T07:45:51.738Z,96136.44
2023-01-03T07:48:18.427Z,96148.78
2023-01-03T07:50:45.175Z,96131.53
2023-01-03T07:53:16.798Z,96144.09
2023-01-03T07:55:45.483Z,96137.06
2023-01-03T07:58:12.345Z,96132.75
2023-01-03T08:00:39.838Z,96116.53
2023-01-03T08:03:10.879Z,96137.38
2023-01-03T08:05:38.585Z,96132.03
2023-01-03T08:08:06.278Z,96104.91
2023-01-03T08:10:53.293Z,96140.41
2023-01-03T08:13:20.148Z,96125.81
2023-01-03T08:15:51.852Z,96131.06
2023-01-03T08:18:26.078Z,96136.28
2023-01-03T08:20:55.412Z,96131.78
2023-01-03T08:23:26.356Z,96125.50
2023-01-03T08:26:03.939Z,96127.50
2023-01-03T08:28:31.115Z,96134.13
2023-01-03T08:31:00.156Z,96130.34
2023-01-03T08:33:31.272Z,96128.09
2023-01-03T08:36:03.451Z,96134.22
2023-01-03T08:38:43.186Z,96138.50
2023-01-03T08:41:10.853Z,96135.78
2023-01-03T08:43:41.442Z,96130.81
2023-01-03T08:46:11.758Z,96125.44
2023-01-03T08:48:38.966Z,96103.13
2023-01-03T08:51:05.725Z,96121.97
2023-01-03T08:53:32.470Z,96118.09
2023-01-03T08:55:59.085Z,96110.78
2023-01-03T08:58:25.879Z,96121.19
2023-01-03T09:00:52.576Z,96121.56
2023-01-03T09:03:19.575Z,96119.25
2023-01-03T09:05:46.483Z,96118.47
2023-01-03T09:08:13.176Z,96103.47
2023-01-03T09:10:47.070Z,96119.56
2023-01-03T09:13:14.463Z,96112.25
2023-01-03T09:15:41.319Z,96113.00
2023-01-03T09:18:08.992Z,96118.84
2023-01-03T09:20:35.821Z,96108.06
2023-01-03T09:23:02.501Z,96061.91
2023-01-03T09:25:34.868Z,96084.53
2023-01-03T09:28:03.663Z,96098.75
2023-01-03T09:30:30.329Z,96086.38
2023-01-03T09:32:57.453Z,96074.44
2023-01-03T09:35:24.255Z,96067.53
2023-01-03T09:37:51.021Z,96087.81
2023-01-03T09:40:17.936Z,96064.22
2023-01-03T09:43:03.541Z,96075.28
2023-01-03T09:45:34.122Z,96070.81
2023-01-03T09:48:03.638Z,96059.69
2023-01-03T09:50:50.916Z,96062.69
2023-01-03T09:53:42.203Z,96052.66
2023-01-03T09:56:31.908Z,96040.38
2023-01-03T09:59:20.586Z,96049.22
2023-01-03T10:02:25.143Z,96039.66
2023-01-03T10:05:13.165Z,96026.38
2023-01-03T10:07:55.067Z,96018.44
2023-01-03T10:10:46.665Z,96017.72
2023-01-03T10:13:35.033Z,96004.72
2023-01-03T10:16:14.640Z,96019.22
2023-01-03T10:18:57.826Z,96014.00
2023-01-03T10:22:01.439Z,96007.84
2023-01-03T10:24:37.131Z,96002.28
2023-01-03T10:27:25.299Z,96001.41
2023-01-03T10:29:56.939Z,95984.38
2023-01-03T10:32:57.689Z,95991.94
2023-01-03T10:35:30.226Z,95975.03
2023-01-03T10:37:58.097Z,95939.88
2023-01-03T10:40:47.933Z,95979.63
2023-01-03T10:43:31.761Z,95963.69
2023-01-03T10:46:02.139Z,95956.34
2023-01-03T10:49:08.369Z,95953.72
2023-01-03T10:51:42.491Z,95946.34
2023-01-03T10:54:26.765Z,95956.50
2023-01-03T10:56:53.522Z,95938.88
2023-01-03T10:59:33.332Z,95941.56
2023-01-03T11:02:02.471Z,95948.81
2023-01-03T11:04:31.479Z,95856.31
2023-01-03T11:07:09.110Z,95938.41
2023-01-03T11:09:52.303Z,95927.47
2023-01-03T11:12:41.585Z,95925.34
2023-01-03T11:15:17.729Z,95929.16
2023-01-03T11:18:04.160Z,95919.03
2023-01-03T11:20:42.229Z,95902.88
2023-01-03T11:23:18.215Z,95912.41
2023-01-03T11:26:02.775Z,95901.03
2023-01-03T11:28:45.032Z,95889.94
2023-01-03T11:31:33.815Z,95898.25
2023-01-03T11:34:08.110Z,95868.94
2023-01-03T11:36:52.079Z,95880.66
2023-01-03T11:39:24.581Z,95888.19
2023-01-03T11:42:03.774Z,95876.28
2023-01-03T11:45:07.937Z,95879.34
2023-01-03T11:48:06.617Z,95880.97
2023-01-03T11:50:53.874Z,95873.16
2023-01-03T11:53:34.872Z,95871.63
2023-01-03T11:56:27.795Z,95866.31
2023-01-03T11:59:14.199Z,95852.88
2023-01-03T12:01:55.719Z,95861.84
2023-01-03T12:04:22.408Z,95866.09
2023-01-03T12:10:00.320Z,95857.41
2023-01-03T12:13:10.524Z,95861.66
2023-01-03T12:15:58.742Z,95846.69
2023-01-03T12:18:38.084Z,95848.16
2023-01-03T12:21:11.733Z,95839.25
2023-01-03T12:23:48.720Z,95847.75
2023-01-03T12:26:16.861Z,95839.06
2023-01-03T12:28:55.891Z,95847.31
2023-01-03T12:31:26.256Z,95840.31
2023-01-03T12:34:20.905Z,95850.09
2023-01-03T12:37:13.828Z,95834.91
2023-01-03T12:39:46.295Z,95841.63
2023-01-03T12:42:31.404Z,95830.00
2023-01-03T12:45:18.320Z,95812.72
2023-01-03T12:48:07.633Z,95835.34
2023-01-03T12:50:48.503Z,95811.13
2023-01-03T12:53:42.012Z,95825.94
2023-01-03T12:56:25.733Z,95836.69
2023-01-03T12:59:21.643Z,95833.38
2023-01-03T13:01:59.255Z,95825.22
2023-01-03T13:04:40.317Z,95830.56
2023-01-03T13:07:15.106Z,95824.94
2023-01-03T13:09:48.175Z,95821.63
2023-01-03T13:12:19.064Z,95823.72
2023-01-03T13:15:15.864Z,95825.78
2023-01-03T13:17:49.784Z,95828.44
2023-01-03T13:20:32.677Z,95822.97
2023-01-03T13:23:01.163Z,95788.97
2023-01-03T13:25:40.246Z,95818.50
2023-01-03T13:28:31.429Z,95820.63
2023-01-03T13:31:19.129Z,95822.91
2023-01-03T13:33:49.044Z,95827.41
2023-01-03T13:36:18.646Z,95825.69
2023-01-03T13:38:46.062Z,95816.38
2023-01-03T13:41:31.263Z,95825.44
2023-01-03T13:44:16.026Z,95821.50
2023-01-03T13:46:43.286Z,95828.97
2023-01-03T13:49:19.177Z,95809.53
2023-01-03T13:51:51.896Z,95816.75
2023-01-03T13:54:18.792Z,95825.66
2023-01-03T13:56:45.354Z,95826.19
2023-01-03T13:59:15.146Z,95823.50
2023-01-03T14:02:06.451Z,95813.97
2023-01-03T14:04:54.764Z,95821.44
2023-01-03T14:07:55.260Z,95827.97
2023-01-03T14:10:59.560Z,95826.97
2023-01-03T14:13:53.423Z,95830.31
2023-01-03T14:16:39.871Z,95825.16
2023-01-03T14:19:25.726Z,95829.06
2023-01-03T14:22:28.148Z,95830.31
2023-01-03T14:24:57.684Z,95820.28
2023-01-03T14:27:32.298Z,95833.22
2023-01-03T14:29:59.183Z,95833.09
2023-01-03T14:32:34.471Z,95831.69
2023-01-03T14:35:02.561Z,95829.88
2023-01-03T14:37:30.349Z,95831.84
2023-01-03T14:40:03.742Z,95830.47
2023-01-03T14:42:30.554Z,95837.91
2023-01-03T14:44:58.123Z,95835.63
2023-01-03T14:47:37.905Z,95814.16
2023-01-03T14:50:07.500Z,95826.28
2023-01-03T14:52:37.915Z,95839.78
2023-01-03T14:55:08.535Z,95843.09
2023-01-03T14:57:39.631Z,95851.66
2023-01-03T15:00:08.661Z,95832.72
2023-01-03T15:02:40.884Z,95824.13
2023-01-03T15:05:23.473Z,95829.47
2023-01-03T15:07:49.983Z,95843.75
2023-01-03T15:10:21.809Z,95838.31
2023-01-03T15:13:00.749Z,95832.34
2023-01-03T15:15:40.229Z,95844.03
2023-01-03T15:18:09.666Z,95850.81
2023-01-03T15:20:40.564Z,95847.16
2023-01-03T15:23:08.322Z,95850.88
2023-01-03T15:25:41.122Z,95860.28
2023-01-03T15:28:22.476Z,95838.75
2023-01-03T15:30:50.695Z,95836.56
2023-01-03T15:33:24.871Z,95856.88
2023-01-03T15:35:54.355Z,95852.75
2023-01-03T15:38:49.000Z,95851.47
2023-01-03T15:41:38.410Z,95853.34
2023-01-03T15:44:06.847Z,95852.09
2023-01-03T15:46:33.757Z,95844.47
2023-01-03T15:49:02.514Z,95848.47
2023-01-03T15:51:29.226Z,95862.03
2023-01-03T15:53:55.908Z,95857.97
2023-01-03T15:56:35.185Z,95840.31
2023-01-03T15:59:07.091Z,95852.28
2023-01-03T16:01:33.962Z,95850.09
2023-01-03T16:04:01.016Z,95844.75
2023-01-03T16:06:27.790Z,95873.84
2023-01-03T16:08:54.423Z,95867.53
2023-01-03T16:11:33.315Z,95880.06
2023-01-03T16:14:03.713Z,95871.09
2023-01-03T16:16:40.746Z,95876.91
2023-01-03T16:19:15.009Z,95876.16
2023-01-03T16:21:51.429Z,95884.66
2023-01-03T16:24:28.554Z,95879.56
2023-01-03T16:26:56.994Z,95871.63
2023-01-03T16:29:23.728Z,95901.38
2023-01-03T16:31:50.805Z,95900.06
2023-01-03T16:34:20.974Z,95894.50
2023-01-03T16:36:48.483Z,95893.53
2023-01-03T16:39:23.171Z,95900.72
2023-01-03T16:42:09.731Z,95900.19
2023-01-03T16:44:37.949Z,95900.81
2023-01-03T16:47:11.893Z,95895.59
2023-01-03T16:49:38.865Z,95896.03
2023-01-03T16:52:06.411Z,95909.72
2023-01-03T16:54:34.558Z,95908.22
2023-01-03T16:57:01.125Z,95901.13
2023-01-03T16:59:27.833Z,95911.25
2023-01-03T17:01:54.631Z,95923.03
2023-01-03T17:04:21.591Z,95906.69
2023-01-03T17:06:48.321Z,95907.81
2023-01-03T17:09:22.735Z,95913.44
2023-01-03T17:11:49.452Z,95909.84
2023-01-03T17:14:21.716Z,95908.22
2023-01-03T17:16:48.921Z,95910.53
2023-01-03T17:19:52.205Z,95887.94
2023-01-03T17:22:05.295Z,95914.31
2023-01-03T17:24:32.036Z,95907.22
2023-01-03T17:27:04.475Z,95898.38
2023-01-03T17:29:31.734Z,95921.72
2023-01-03T17:31:58.656Z,95909.16
2023-01-03T17:34:26.771Z,95922.25
2023-01-03T17:36:54.940Z,95915.03
2023-01-03T17:39:22.530Z,95929.69
2023-01-03T17:42:07.712Z,95929.25
2023-01-03T17:44:34.297Z,95893.47
2023-01-03T17:47:33.924Z,95921.59
2023-01-03T17:50:01.234Z,95916.91
2023-01-03T17:52:33.925Z,95805.84
2023-01-03T17:55:00.962Z,95927.66
2023-01-03T17:57:28.161Z,95869.72
2023-01-03T17:59:54.896Z,95939.50
2023-01-03T18:02:24.607Z,95932.13
2023-01-03T18:07:38.871Z,95943.97
2023-01-03T18:10:07.636Z,95935.53
2023-01-03T18:12:34.494Z,95946.09
2023-01-03T18:15:01.205Z,95940.00
2023-01-03T18:17:31.166Z,95933.69
2023-01-03T18:19:59.016Z,95942.72
2023-01-03T18:22:26.189Z,95921.31
2023-01-03T18:24:54.264Z,95942.38
2023-01-03T18:27:22.932Z,95929.50
2023-01-03T18:29:49.748Z,95946.28
2023-01-03T18:32:30.295Z,95945.09
2023-01-03T18:34:58.167Z,95934.41
2023-01-03T18:37:30.345Z,95934.41
2023-01-03T18:39:57.033Z,95924.59
2023-01-03T18:42:42.133Z,95958.91
2023-01-03T18:45:12.276Z,95953.88
2023-01-03T18:47:39.226Z,95914.78
2023-01-03T18:50:06.880Z,95934.56
2023-01-03T18:52:37.831Z,95918.00
2023-01-03T18:55:07.224Z,95907.41
2023-01-03T18:57:34.342Z,95930.94
2023-01-03T19:00:03.403Z,95859.91
2023-01-03T19:02:30.633Z,95951.81
2023-01-03T19:04:57.373Z,95956.22
2023-01-03T19:07:32.996Z,95937.13
2023-01-03T19:10:00.475Z,95944.94
2023-01-03T19:12:27.592Z,95951.28
2023-01-03T19:14:55.857Z,95952.16
2023-01-03T19:17:23.357Z,95918.31
2023-01-03T19:19:52.084Z,95954.38
2023-01-03T19:22:40.210Z,95951.28
2023-01-03T19:25:13.851Z,95961.06
2023-01-03T19:27:45.201Z,95953.84
2023-01-03T19:30:21.818Z,95951.09
2023-01-03T19:32:53.139Z,95970.59
2023-01-03T19:35:20.450Z,95958.94
2023-01-03T19:37:47.267Z,95950.03
2023-01-03T19:40:16.084Z,95926.91
2023-01-03T19:42:50.950Z,95928.84
2023-01-03T19:45:24.509Z,95937.97
2023-01-03T19:47:51.208Z,95940.59
2023-01-03T19:50:24.278Z,95903.75
2023-01-03T19:52:51.889Z,95953.59
2023-01-03T19:55:18.591Z,95951.81
2023-01-03T19:57:48.741Z,95941.13
2023-01-03T20:00:18.637Z,95949.59
2023-01-03T20:02:45.848Z,95954.72
2023-01-03T20:05:20.270Z,95960.16
2023-01-03T20:07:47.873Z,95961.84
2023-01-03T20:10:38.945Z,95965.69
2023-01-03T20:13:06.123Z,95974.88
2023-01-03T20:15:36.771Z,95961.34
2023-01-03T20:18:03.972Z,95954.06
2023-01-03T20:20:33.015Z,95956.69
2023-01-03T20:23:05.629Z,95958.66
2023-01-03T20:25:34.901Z,95950.16
2023-01-03T20:28:01.822Z,95937.47
2023-01-03T20:30:31.429Z,95944.34
2023-01-03T20:32:58.533Z,95946.19
2023-01-03T20:38:20.919Z,95955.97
2023-01-03T20:40:47.693Z,95959.22
2023-01-03T20:43:15.428Z,95954.81
2023-01-03T20:45:42.158Z,95962.97
2023-01-03T20:48:18.033Z,95937.38
2023-01-03T20:50:50.364Z,95878.94
2023-01-03T20:53:22.325Z,95918.63
2023-01-03T20:55:50.036Z,95965.78
2023-01-03T20:58:21.182Z,95948.75
2023-01-03T21:00:48.363Z,95956.84
2023-01-03T21:03:15.246Z,95970.03
2023-01-03T21:05:42.287Z,95973.50
2023-01-03T21:08:33.195Z,95971.06
2023-01-03T21:11:00.170Z,95963.22
2023-01-03T21:13:26.796Z,95952.19
2023-01-03T21:15:53.621Z,95964.75
2023-01-03T21:18:20.335Z,95923.94
2023-01-03T21:20:47.190Z,95965.63
2023-01-03T21:23:18.555Z,95959.75
2023-01-03T21:25:45.715Z,95958.13
2023-01-03T21:28:12.927Z,95944.13
2023-01-03T21:30:40.798Z,95893.28
2023-01-03T21:33:16.310Z,95968.25
2023-01-03T21:35:43.169Z,95971.44
2023-01-03T21:38:10.170Z,95966.09
2023-01-03T21:40:37.095Z,95967.19
2023-01-03T21:43:05.223Z,95966.97
2023-01-03T21:45:35.297Z,95968.31
2023-01-03T21:48:04.465Z,95955.00
2023-01-03T21:50:32.849Z,95968.56
2023-01-03T21:52:59.643Z,95960.44
2023-01-03T21:55:26.604Z,95961.44
2023-01-03T21:57:57.237Z,95969.59
2023-01-03T22:00:24.045Z,95962.78
2023-01-03T22:03:10.158Z,95953.03
2023-01-03T22:05:36.833Z,95970.53
2023-01-03T22:08:03.875Z,95973.78
2023-01-03T22:10:31.245Z,95972.03
2023-01-03T22:13:01.267Z,95976.72
2023-01-03T22:15:28.300Z,95979.09
2023-01-03T22:17:55.574Z,95969.75
2023-01-03T22:20:24.851Z,95966.78
2023-01-03T22:22:51.788Z,95943.03
2023-01-03T22:25:22.538Z,95948.47
2023-01-03T22:27:49.875Z,95961.50
2023-01-03T22:30:19.455Z,95962.69
2023-01-03T22:32:47.364Z,95961.78
2023-01-03T22:35:15.525Z,95952.28
2023-01-03T22:37:42.400Z,95949.09
2023-01-03T22:40:13.125Z,95950.22
2023-01-03T22:42:39.902Z,95967.88
2023-01-03T22:45:08.123Z,95960.75
2023-01-03T22:47:36.533Z,95951.13
2023-01-03T22:50:04.713Z,95961.84
2023-01-03T22:52:31.426Z,95960.59
2023-01-03T22:54:58.268Z,95965.75
2023-01-03T22:57:25.029Z,95973.91
2023-01-03T22:59:51.772Z,95929.41
2023-01-03T23:02:24.648Z,95951.63
2023-01-03T23:04:54.974Z,95961.84
2023-01-03T23:07:21.678Z,95961.41
2023-01-03T23:09:48.443Z,95961.78
2023-01-03T23:12:33.591Z,95963.72
2023-01-03T23:15:00.244Z,95949.56
2023-01-03T23:17:45.322Z,95962.69
2023-01-03T23:20:12.276Z,95958.38
2023-01-03T23:22:38.998Z,95960.41
2023-01-03T23:25:06.029Z,95943.34
2023-01-03T23:27:32.669Z,95957.94
2023-01-03T23:29:59.242Z,95950.16
2023-01-03T23:32:25.993Z,95941.50
2023-01-03T23:34:52.597Z,95941.09
2023-01-03T23:37:19.248Z,95948.94
2023-01-03T23:39:45.879Z,95943.53
2023-01-03T23:42:12.695Z,95949.38
2023-01-03T23:44:39.353Z,95958.22
2023-01-03T23:47:11.425Z,95943.69
2023-01-03T23:49:39.017Z,95947.34
2023-01-03T23:52:05.623Z,95950.16
2023-01-03T23:54:32.553Z,95962.97
2023-01-03T23:56:59.283Z,95942.22
2023-01-03T23:59:25.959Z,95961.69
